createdAt,value
2022-09-16T07:33:32.133Z,0.33
2022-09-16T07:36:02.978Z,0.40
2022-09-16T07:38:32.817Z,0.50
2022-09-16T07:41:06.713Z,0.40
2022-09-16T07:43:35.334Z,0.57
2022-09-16T07:46:04.110Z,0.30
2022-09-16T07:48:35.939Z,0.33
2022-09-16T07:51:09.740Z,0.40
2022-09-16T07:53:38.546Z,0.33
2022-09-16T07:56:11.698Z,0.40
2022-09-16T07:58:40.736Z,0.57
2022-09-16T08:01:10.731Z,0.60
2022-09-16T08:03:41.508Z,0.82
2022-09-16T08:06:13.266Z,0.60
2022-09-16T08:08:42.229Z,0.68
2022-09-16T08:11:12.634Z,0.50
2022-09-16T08:13:42.309Z,0.60
2022-09-16T08:16:14.963Z,0.38
2022-09-16T08:18:46.185Z,0.43
2022-09-16T08:21:16.956Z,0.60
2022-09-16T08:23:45.708Z,0.38
2022-09-16T08:26:16.217Z,0.65
2022-09-16T08:29:07.236Z,0.60
2022-09-16T08:31:35.338Z,0.50
2022-09-16T08:34:05.089Z,0.50
2022-09-16T08:36:34.580Z,0.40
2022-09-16T08:39:03.460Z,0.50
2022-09-16T08:42:02.868Z,0.52
2022-09-16T08:44:43.129Z,0.70
2022-09-16T08:47:25.318Z,0.65
2022-09-16T08:49:55.571Z,0.60
2022-09-16T08:52:32.238Z,0.80
2022-09-16T08:55:04.654Z,0.73
2022-09-16T08:57:40.566Z,0.50
2022-09-16T09:00:15.819Z,0.50
2022-09-16T09:02:51.422Z,0.70
2022-09-16T09:05:30.557Z,0.75
2022-09-16T09:08:26.997Z,0.90
2022-09-16T09:11:02.655Z,0.80
2022-09-16T09:13:46.245Z,0.90
2022-09-16T09:16:25.825Z,0.70
2022-09-16T09:19:07.298Z,0.80
2022-09-16T09:21:45.783Z,0.80
2022-09-16T09:24:37.911Z,0.95
2022-09-16T09:27:15.864Z,0.70
2022-09-16T09:30:11.833Z,0.70
2022-09-16T09:33:02.221Z,0.77
2022-09-16T09:35:50.104Z,0.70
2022-09-16T09:38:57.878Z,0.70
2022-09-16T09:41:32.748Z,0.77
2022-09-16T09:44:24.558Z,1.00
2022-09-16T09:46:57.808Z,0.88
2022-09-16T09:49:34.645Z,0.90
2022-09-16T09:52:11.971Z,0.73
2022-09-16T09:54:48.239Z,0.90
2022-09-16T09:57:23.726Z,0.90
2022-09-16T09:59:59.672Z,0.70
2022-09-16T10:02:30.975Z,1.08
2022-09-16T10:04:59.223Z,0.70
2022-09-16T10:07:28.725Z,0.73
2022-09-16T10:10:04.560Z,0.90
2022-09-16T10:12:36.408Z,0.73
2022-09-16T10:15:06.794Z,0.77
2022-09-16T10:17:35.532Z,0.60
2022-09-16T10:20:10.573Z,0.68
2022-09-16T10:22:38.925Z,0.50
2022-09-16T10:25:26.649Z,0.45
2022-09-16T10:28:01.325Z,0.70
2022-09-16T10:30:34.238Z,0.70
2022-09-16T10:33:06.328Z,0.77
2022-09-16T10:35:38.857Z,0.85
2022-09-16T10:38:19.564Z,0.98
2022-09-16T10:40:55.333Z,0.75
2022-09-16T10:43:25.848Z,0.82
2022-09-16T10:45:55.521Z,0.70
2022-09-16T10:48:29.450Z,0.70
2022-09-16T10:51:00.385Z,0.57
2022-09-16T10:53:39.094Z,0.40
2022-09-16T10:56:19.910Z,0.45
2022-09-16T10:58:48.488Z,0.70
2022-09-16T11:01:40.585Z,0.57
2022-09-16T11:04:47.328Z,0.55
2022-09-16T11:07:39.841Z,0.73
2022-09-16T11:10:23.271Z,0.55
2022-09-16T11:13:32.403Z,0.70
2022-09-16T11:16:32.571Z,0.82
2022-09-16T11:19:08.424Z,0.70
2022-09-16T11:21:57.068Z,0.80
2022-09-16T11:25:01.673Z,0.65
2022-09-16T11:27:49.715Z,0.65
2022-09-16T11:30:22.485Z,0.60
2022-09-16T11:33:17.388Z,0.85
2022-09-16T11:36:26.201Z,0.80
2022-09-16T11:39:12.694Z,1.02
2022-09-16T11:41:48.536Z,0.60
2022-09-16T11:44:33.894Z,0.68
2022-09-16T11:47:19.863Z,0.75
2022-09-16T11:50:05.217Z,0.80
2022-09-16T11:52:51.584Z,0.40
2022-09-16T11:55:34.824Z,0.75
2022-09-16T11:58:20.038Z,0.90
2022-09-16T12:00:51.454Z,0.80
2022-09-16T12:03:33.042Z,0.82
2022-09-16T12:06:09.354Z,0.70
2022-09-16T12:08:52.165Z,0.80
2022-09-16T12:11:27.266Z,0.60
2022-09-16T12:14:11.408Z,0.68
2022-09-16T12:16:46.526Z,0.77
2022-09-16T12:19:22.098Z,0.88
2022-09-16T12:21:57.919Z,0.70
2022-09-16T12:24:39.250Z,0.65
2022-09-16T12:27:15.141Z,0.60
2022-09-16T12:29:53.503Z,0.80
2022-09-16T12:32:43.488Z,0.45
2022-09-16T12:35:17.654Z,0.40
2022-09-16T12:37:50.244Z,0.55
2022-09-16T12:40:24.451Z,0.43
2022-09-16T12:43:39.332Z,0.30
2022-09-16T12:46:45.352Z,0.35
2022-09-16T12:49:55.679Z,0.47
2022-09-16T12:52:55.303Z,0.45
2022-09-16T12:55:59.634Z,0.38
2022-09-16T12:59:15.965Z,0.43
2022-09-16T13:01:49.180Z,0.38
2022-09-16T13:04:31.146Z,0.40
2022-09-16T13:07:01.991Z,1.90
2022-09-16T13:09:36.582Z,1.20
2022-09-16T13:14:59.850Z,0.65
2022-09-16T13:17:32.089Z,0.60
2022-09-16T13:20:08.619Z,0.60
2022-09-16T13:22:46.535Z,0.50
2022-09-16T13:25:24.702Z,1.77
2022-09-16T13:28:01.811Z,1.10
2022-09-16T13:30:38.407Z,0.85
2022-09-16T13:33:29.667Z,0.85
2022-09-16T13:36:18.652Z,0.63
2022-09-16T13:38:52.443Z,0.70
2022-09-16T13:41:35.245Z,0.77
2022-09-16T13:44:25.560Z,0.80
2022-09-16T13:46:54.212Z,0.80
2022-09-16T13:49:27.754Z,0.70
2022-09-16T13:51:56.486Z,0.70
2022-09-16T13:54:30.248Z,0.70
2022-09-16T13:57:30.021Z,0.93
2022-09-16T14:00:14.052Z,1.00
2022-09-16T14:03:19.191Z,0.85
2022-09-16T14:06:24.661Z,0.88
2022-09-16T14:09:02.560Z,0.60
2022-09-16T14:11:40.277Z,1.08
2022-09-16T14:14:30.102Z,1.00
2022-09-16T14:17:07.189Z,1.02
2022-09-16T14:19:38.887Z,1.10
2022-09-16T14:22:16.366Z,0.90
2022-09-16T14:24:50.256Z,1.02
2022-09-16T14:27:34.049Z,0.80
2022-09-16T14:30:07.504Z,0.70
2022-09-16T14:32:38.776Z,0.70
2022-09-16T14:35:17.437Z,0.60
2022-09-16T14:37:49.165Z,1.00
2022-09-16T14:40:21.762Z,1.00
2022-09-16T14:42:55.831Z,0.70
2022-09-16T14:45:26.022Z,0.80
2022-09-16T14:48:01.899Z,1.33
2022-09-16T14:50:35.697Z,1.10
2022-09-16T14:53:09.087Z,1.25
2022-09-16T14:55:40.178Z,0.82
2022-09-16T14:58:12.355Z,0.73
2022-09-16T15:00:48.418Z,0.90
2022-09-16T15:03:24.893Z,0.90
2022-09-16T15:05:56.457Z,1.08
2022-09-16T15:08:31.454Z,1.17
2022-09-16T15:11:03.791Z,0.90
2022-09-16T15:13:37.813Z,0.97
2022-09-16T15:16:13.709Z,0.80
2022-09-16T15:18:45.908Z,1.00
2022-09-16T15:21:21.807Z,0.90
2022-09-16T15:23:53.054Z,0.97
2022-09-16T15:26:24.304Z,1.00
2022-09-16T15:28:59.547Z,0.90
2022-09-16T15:31:36.664Z,1.05
2022-09-16T15:34:21.997Z,1.17
2022-09-16T15:36:54.951Z,1.27
2022-09-16T15:39:26.388Z,1.10
2022-09-16T15:42:12.361Z,1.10
2022-09-16T15:44:49.139Z,0.80
2022-09-16T15:47:25.143Z,0.80
2022-09-16T15:50:05.300Z,1.50
2022-09-16T15:53:08.660Z,1.13
2022-09-16T15:56:26.146Z,1.33
2022-09-16T15:59:01.881Z,0.93
2022-09-16T16:01:49.825Z,0.80
2022-09-16T16:04:34.843Z,0.60
2022-09-16T16:07:05.676Z,0.80
2022-09-16T16:09:39.406Z,0.70
2022-09-16T16:12:14.403Z,0.60
2022-09-16T16:14:43.237Z,0.40
2022-09-16T16:17:15.187Z,0.50
2022-09-16T16:19:47.685Z,0.47
2022-09-16T16:22:17.565Z,0.30
2022-09-16T16:24:46.514Z,0.50
2022-09-16T16:27:14.962Z,0.40
2022-09-16T16:29:43.610Z,0.30
2022-09-16T16:32:14.496Z,0.50
2022-09-16T16:34:46.727Z,0.40
2022-09-16T16:37:40.282Z,0.50
2022-09-16T16:40:07.160Z,0.33
2022-09-16T16:42:36.067Z,0.30
2022-09-16T16:45:04.730Z,0.20
2022-09-16T16:47:33.420Z,0.40
2022-09-16T16:50:03.387Z,0.20
2022-09-16T16:52:32.384Z,0.30
2022-09-16T16:55:00.988Z,0.40
2022-09-16T16:57:29.383Z,0.37
2022-09-16T16:59:57.712Z,0.30
2022-09-16T17:02:26.239Z,0.30
2022-09-16T17:04:54.712Z,0.20
2022-09-16T17:07:26.705Z,0.10
2022-09-16T17:09:56.928Z,0.10
2022-09-16T17:12:25.251Z,0.20
2022-09-16T17:14:53.587Z,0.10
2022-09-16T17:17:22.119Z,0.10
2022-09-16T17:19:50.343Z,0.20
2022-09-16T17:22:18.631Z,0.17
2022-09-16T17:24:48.396Z,0.10
2022-09-16T17:27:19.758Z,0.20
2022-09-16T17:29:48.079Z,0.20
2022-09-16T17:32:16.501Z,0.20
2022-09-16T17:34:44.687Z,0.20
2022-09-16T17:37:14.256Z,0.27
2022-09-16T17:39:42.532Z,0.10
2022-09-16T17:42:12.292Z,0.30
2022-09-16T17:44:40.807Z,0.20
2022-09-16T17:47:09.040Z,0.20
2022-09-16T17:49:37.248Z,0.10
2022-09-16T17:52:05.561Z,0.30
2022-09-16T17:54:33.884Z,0.20
2022-09-16T17:57:02.104Z,0.20
2022-09-16T17:59:31.816Z,0.20
2022-09-16T18:02:00.072Z,0.23
2022-09-16T18:04:28.328Z,0.20
2022-09-16T18:06:56.684Z,0.30
2022-09-16T18:09:25.152Z,0.20
2022-09-16T18:11:53.518Z,0.40
2022-09-16T18:14:23.548Z,0.40
2022-09-16T18:16:53.854Z,0.20
2022-09-16T18:19:22.539Z,0.30
2022-09-16T18:21:51.721Z,0.30
2022-09-16T18:24:20.281Z,0.20
2022-09-16T18:26:49.424Z,0.20
2022-09-16T18:29:17.727Z,0.20
2022-09-16T18:31:48.537Z,0.30
2022-09-16T18:34:18.992Z,0.30
2022-09-16T18:36:47.551Z,0.20
2022-09-16T18:39:17.683Z,0.27
2022-09-16T18:41:47.271Z,0.30
2022-09-16T18:44:19.689Z,0.40
2022-09-16T18:46:48.710Z,0.40
2022-09-16T18:49:20.153Z,0.30
2022-09-16T18:51:51.923Z,0.47
2022-09-16T18:54:24.946Z,0.40
2022-09-16T18:56:55.835Z,0.30
2022-09-16T18:59:28.286Z,0.30
2022-09-16T19:01:59.287Z,0.40
2022-09-16T19:04:31.347Z,0.30
2022-09-16T19:07:07.203Z,0.37
2022-09-16T19:09:37.507Z,0.40
2022-09-16T19:12:06.850Z,0.40
2022-09-16T19:14:35.319Z,0.30
2022-09-16T19:17:04.107Z,0.40
2022-09-16T19:19:34.869Z,0.20
2022-09-16T19:22:05.631Z,0.30
2022-09-16T19:24:34.563Z,0.20
2022-09-16T19:27:02.839Z,0.50
2022-09-16T19:29:32.510Z,0.47
2022-09-16T19:32:00.976Z,0.40
2022-09-16T19:34:29.562Z,0.40
2022-09-16T19:37:00.546Z,0.30
2022-09-16T19:39:29.022Z,0.43
2022-09-16T19:41:57.503Z,0.30
2022-09-16T19:44:26.087Z,0.40
2022-09-16T19:46:54.432Z,0.30
2022-09-16T19:49:23.905Z,0.30
2022-09-16T19:51:54.232Z,0.30
2022-09-16T19:54:24.735Z,0.50
2022-09-16T19:56:53.482Z,0.33
2022-09-16T19:59:22.184Z,0.40
2022-09-16T20:01:51.116Z,0.40
2022-09-16T20:04:20.865Z,0.43
2022-09-16T20:06:49.961Z,0.20
2022-09-16T20:09:19.955Z,0.50
2022-09-16T20:11:50.326Z,0.40
2022-09-16T20:14:21.205Z,0.40
2022-09-16T20:16:50.811Z,0.40
2022-09-16T20:19:21.070Z,0.30
2022-09-16T20:21:49.650Z,0.50
2022-09-16T20:24:20.582Z,0.40
2022-09-16T20:26:53.713Z,0.30
2022-09-16T20:29:26.204Z,0.20
2022-09-16T20:31:54.894Z,0.33
2022-09-16T20:34:24.314Z,0.37
2022-09-16T20:36:52.971Z,0.30
2022-09-16T20:39:22.195Z,0.40
2022-09-16T20:41:52.750Z,0.30
2022-09-16T20:44:21.627Z,0.30
2022-09-16T20:46:50.226Z,0.30
2022-09-16T20:49:22.897Z,0.37
2022-09-16T20:51:51.864Z,0.60
2022-09-16T20:54:20.190Z,0.50
2022-09-16T20:56:49.427Z,0.47
2022-09-16T20:59:21.585Z,0.70
2022-09-16T21:01:50.628Z,0.50
2022-09-16T21:04:20.951Z,0.30
2022-09-16T21:06:49.817Z,0.40
2022-09-16T21:09:19.222Z,0.40
2022-09-16T21:11:48.194Z,0.43
2022-09-16T21:14:21.591Z,0.40
2022-09-16T21:16:51.604Z,0.40
2022-09-16T21:19:20.239Z,0.30
2022-09-16T21:21:48.664Z,0.40
2022-09-16T21:24:17.912Z,0.40
2022-09-16T21:26:47.383Z,0.70
2022-09-16T21:29:21.460Z,0.50
2022-09-16T21:31:50.259Z,0.30
2022-09-16T21:34:20.584Z,0.40
2022-09-16T21:36:49.758Z,0.60
2022-09-16T21:39:20.305Z,0.60
2022-09-16T21:41:49.956Z,0.50
2022-09-16T21:44:19.913Z,0.50
2022-09-16T21:46:49.551Z,0.40
2022-09-16T21:49:24.141Z,0.37
2022-09-16T21:51:54.073Z,0.40
2022-09-16T21:54:22.610Z,0.80
2022-09-16T21:56:52.317Z,0.57
2022-09-16T21:59:22.236Z,0.57
2022-09-16T22:01:52.227Z,0.60
2022-09-16T22:04:22.830Z,0.70
2022-09-16T22:06:54.003Z,0.77
2022-09-16T22:14:12.936Z,0.70
